Gulf Cajun — WDE2831 — position and weather

sailwx.info

Track history (hours):
 
Tides and Currents Weather Stations Pressure Air Temp Water Temp Dewpoint Dewpoint Depression Visibility Wind Speed Wind Dir Waves Ship Positions

Gulf Cajun

Owner: AR Cheramie Marine Management Inc, Lafayette, LA. More information available from US FCC via Universal Licensing System and Coast Guard Vessel Documentation Center.

Last reported at 2017-Oct-09 21:06 UTC. Time now 2017-Oct-17 06:18 UTC.
Position N 58°17' W 136°21'.

Length 45 m; draft 3 m.

Type: Ship. MMSI: 367014320.

Date/timePositionNaut miles runAvg speedWind from/ knotsBaromVisibWave heightAir tempDewpointWater temp
2017-Oct-09 21:06N 58°17' W 136°21'1 8.6
2017-Oct-09 21:00N 58°17' W 136°19'4 7.8
2017-Oct-09 20:26N 58°16' W 136°11'3 7.5
2017-Oct-09 20:00N 58°15' W 136°05'4 7.7
2017-Oct-09 19:30N 58°16' W 135°58'4 7.3
2017-Oct-09 19:00N 58°17' W 135°51'4 7.6
2017-Oct-09 18:28N 58°18' W 135°44'4 8.6
2017-Oct-09 18:00N 58°16' W 135°37'3 3.8
2017-Oct-09 17:16N 58°15' W 135°32'2 7.6
2017-Oct-09 16:59N 58°15' W 135°36'3 5.0
2017-Oct-09 16:29N 58°16' W 135°40'2 3.5
2017-Oct-09 16:00N 58°17' W 135°43'2 3.1
2017-Oct-09 15:29N 58°18' W 135°46'1 1.8
2017-Oct-09 15:00N 58°19' W 135°45'3 6.0
2017-Oct-09 14:30N 58°17' W 135°40'3 5.5
2017-Oct-09 13:58N 58°16' W 135°35'3 1.0
2017-Oct-09 10:57N 58°14' W 135°31'2 4.4
2017-Oct-09 10:29N 58°15' W 135°35'2 4.6
2017-Oct-09 09:57N 58°16' W 135°38'1 2.1
2017-Oct-09 09:22N 58°17' W 135°36'4 1.6
2017-Oct-09 06:41N 58°14' W 135°29'1 4.7
2017-Oct-09 06:30N 58°14' W 135°31'3 5.1
2017-Oct-09 05:57N 58°16' W 135°36'2 4.7
2017-Oct-09 05:30N 58°17' W 135°39'1 1.5
2017-Oct-09 04:59N 58°17' W 135°40'3 4.7
2017-Oct-09 04:19N 58°16' W 135°35'2 5.0
2017-Oct-09 04:00N 58°15' W 135°32'2 0.7
2017-Oct-09 00:56N 58°14' W 135°29'2 3.8
2017-Oct-09 00:29N 58°15' W 135°32'2 3.5
2017-Oct-09 00:00N 58°15' W 135°35'2 3.6
2017-Oct-08 23:29N 58°16' W 135°38'2 3.8
2017-Oct-08 23:00N 58°17' W 135°41'2 3.3
2017-Oct-08 22:29N 58°18' W 135°44'2 3.9
2017-Oct-08 22:00N 58°19' W 135°47'2 3.3
2017-Oct-08 21:30N 58°18' W 135°45'3 5.2
2017-Oct-08 20:59N 58°17' W 135°40'2 4.5
2017-Oct-08 20:30N 58°16' W 135°36'3 5.1
2017-Oct-08 19:57N 58°15' W 135°31'1 0.3
2017-Oct-08 17:03N 58°15' W 135°29'0 3.8
2017-Oct-08 16:59N 58°15' W 135°30'2 3.9
2017-Oct-08 16:30N 58°15' W 135°33'2 4.0
2017-Oct-08 16:00N 58°16' W 135°37'2 3.8
2017-Oct-08 15:28N 58°17' W 135°40'2 3.2
2017-Oct-08 15:00N 58°17' W 135°43'3 4.6
2017-Oct-08 14:26N 58°17' W 135°38'3 5.8
2017-Oct-08 13:56N 58°16' W 135°33'3 5.5
2017-Oct-08 13:23N 58°15' W 135°28'1 0.7
2017-Oct-08 11:35N 58°13' W 135°28'0 3.9
2017-Oct-08 11:28N 58°14' W 135°29'2 3.9
2017-Oct-08 10:57N 58°14' W 135°32'2 4.1
2017-Oct-08 10:28N 58°15' W 135°36'2 4.4
2017-Oct-08 09:59N 58°16' W 135°40'2 4.7
2017-Oct-08 09:30N 58°17' W 135°43'1 2.8
2017-Oct-08 08:59N 58°19' W 135°43'2 4.2
2017-Oct-08 08:28N 58°17' W 135°40'2 4.7
2017-Oct-08 07:59N 58°17' W 135°36'5 1.5
2017-Oct-08 04:49N 58°14' W 135°29'1 4.5
2017-Oct-08 04:29N 58°15' W 135°31'3 4.3
2017-Oct-08 03:50N 58°16' W 135°36'1 1.5
2017-Oct-08 03:20N 58°16' W 135°34'3 5.3
2017-Oct-08 02:51N 58°15' W 135°30'3 1.9
2017-Oct-08 01:16N 58°13' W 135°25'2 4.5
2017-Oct-08 00:51N 58°13' W 135°28'4 4.3
2017-Oct-08 00:00N 58°15' W 135°35'2 4.5
2017-Oct-07 23:30N 58°16' W 135°39'2 4.3
2017-Oct-07 22:59N 58°17' W 135°43'2 3.8
2017-Oct-07 22:30N 58°18' W 135°45'1 1.7
2017-Oct-07 22:00N 58°19' W 135°43'3 5.0
2017-Oct-07 21:28N 58°17' W 135°39'2 4.5
2017-Oct-07 21:00N 58°16' W 135°35'2 4.8
2017-Oct-07 20:29N 58°16' W 135°31'1 0.5
2017-Oct-07 17:29N 58°14' W 135°30'3 4.9
2017-Oct-07 16:53N 58°16' W 135°35'2 5.3
2017-Oct-07 16:30N 58°16' W 135°38'2 4.9
2017-Oct-07 16:00N 58°17' W 135°43'2 4.1
2017-Oct-07 15:29N 58°17' W 135°39'3 4.9
2017-Oct-07 14:56N 58°16' W 135°34'2 0.7
2017-Oct-07 12:01N 58°14' W 135°33'1 4.4
2017-Oct-07 11:53N 58°14' W 135°33'2 4.5
2017-Oct-07 11:30N 58°15' W 135°36'2 4.5
2017-Oct-07 10:59N 58°16' W 135°41'2 3.9
2017-Oct-07 10:30N 58°17' W 135°43'2 3.9
2017-Oct-07 10:00N 58°19' W 135°46'1 1.7
2017-Oct-07 09:30N 58°18' W 135°45'2 4.7
2017-Oct-07 08:59N 58°17' W 135°40'2 4.3
2017-Oct-07 08:29N 58°17' W 135°36'2 4.3
2017-Oct-07 07:57N 58°16' W 135°32'5 2.6
2017-Oct-07 06:06N 58°13' W 135°25'0 4.6
2017-Oct-07 05:59N 58°13' W 135°26'4 4.5
2017-Oct-07 05:12N 58°15' W 135°32'2 5.6
2017-Oct-07 04:56N 58°15' W 135°34'2 5.4
2017-Oct-07 04:29N 58°16' W 135°39'3 5.5
2017-Oct-07 04:00N 58°18' W 135°43'1 2.6
2017-Oct-07 03:29N 58°17' W 135°41'4 7.1
2017-Oct-07 02:59N 58°16' W 135°34'3 4.9
2017-Oct-07 02:27N 58°15' W 135°30'5 1.3
2017-Oct-06 23:06N 58°15' W 135°38'3 3.9
2017-Oct-06 22:13N 58°17' W 135°44'1 2.9
2017-Oct-06 21:58N 58°18' W 135°45'2 0.3
2017-Oct-06 15:47N 58°17' W 135°41'2 5.0
2017-Oct-06 15:28N 58°18' W 135°43'2 4.1
2017-Oct-06 14:58N 58°19' W 135°47'1 2.0
2017-Oct-06 14:30N 58°18' W 135°48'3 5.5
2017-Oct-06 13:59N 58°17' W 135°44'3 4.9
2017-Oct-06 13:25N 58°16' W 135°39'3 5.2
2017-Oct-06 12:54N 58°16' W 135°34'3 1.0
2017-Oct-06 10:02N 58°14' W 135°30'0 4.9
2017-Oct-06 09:58N 58°14' W 135°31'2 4.6
2017-Oct-06 09:26N 58°15' W 135°35'2 4.6
2017-Oct-06 08:59N 58°16' W 135°38'2 4.4
2017-Oct-06 08:30N 58°17' W 135°41'2 4.0
2017-Oct-06 07:55N 58°17' W 135°37'3 5.2
2017-Oct-06 07:25N 58°16' W 135°32'3 1.0
2017-Oct-06 04:13N 58°13' W 135°28'1 4.6
2017-Oct-06 03:54N 58°14' W 135°30'2 4.7
2017-Oct-06 03:29N 58°15' W 135°33'3 4.4
2017-Oct-06 02:49N 58°16' W 135°39'1 4.5
2017-Oct-06 02:30N 58°17' W 135°41'2 3.9
2017-Oct-06 02:00N 58°18' W 135°44'2 3.4
2017-Oct-06 01:30N 58°19' W 135°47'1 2.2
2017-Oct-06 01:00N 58°19' W 135°49'10 0.9
2017-Oct-05 13:50N 58°15' W 135°31'2 4.3
2017-Oct-05 13:29N 58°16' W 135°34'2 4.0
2017-Oct-05 12:56N 58°16' W 135°38'2 3.7
2017-Oct-05 12:30N 58°17' W 135°41'2 3.7
2017-Oct-05 12:00N 58°18' W 135°44'2 3.4
2017-Oct-05 11:30N 58°19' W 135°47'2 4.4
2017-Oct-05 11:00N 58°18' W 135°43'3 6.2
2017-Oct-05 10:26N 58°16' W 135°37'3 6.5
2017-Oct-05 09:58N 58°15' W 135°32'3 2.8
2017-Oct-05 08:52N 58°14' W 135°26'2 3.9
2017-Oct-05 08:14N 58°15' W 135°30'1 4.2
2017-Oct-05 07:57N 58°16' W 135°32'2 4.1
2017-Oct-05 07:30N 58°16' W 135°36'2 4.2
2017-Oct-05 06:58N 58°17' W 135°40'2 4.2
2017-Oct-05 06:30N 58°17' W 135°43'1 2.8
2017-Oct-05 06:00N 58°18' W 135°46'2 3.7
2017-Oct-05 05:30N 58°18' W 135°42'2 4.6
2017-Oct-05 04:59N 58°17' W 135°38'4 5.4
2017-Oct-05 04:16N 58°15' W 135°31'4 1.8
2017-Oct-05 02:17N 58°14' W 135°25'2 5.3
2017-Oct-05 01:57N 58°14' W 135°28'258 6.3
2017-Oct-03 09:02N 54°43' W 131°03'2 9.5
2017-Oct-03 08:50N 54°42' W 130°59'4 9.5
2017-Oct-03 08:27N 54°42' W 130°53'4 9.1
2017-Oct-03 08:00N 54°40' W 130°48'5 9.4
2017-Oct-03 07:30N 54°36' W 130°44'4 8.6
2017-Oct-03 07:00N 54°32' W 130°43'4 8.2
2017-Oct-03 06:30N 54°28' W 130°40'4 8.4
2017-Oct-03 06:00N 54°24' W 130°38'4 8.0
2017-Oct-03 05:30N 54°20' W 130°36'4 8.6
2017-Oct-03 05:00N 54°16' W 130°33'5 9.1
2017-Oct-03 04:30N 54°12' W 130°28'5 8.9
2017-Oct-03 04:00N 54°08' W 130°24'4 8.9
2017-Oct-03 03:30N 54°05' W 130°19'5 9.2
2017-Oct-03 03:00N 54°02' W 130°14'5 9.5
2017-Oct-03 02:30N 53°57' W 130°12'4 8.1
2017-Oct-03 02:00N 53°54' W 130°07'5 8.9
2017-Oct-03 01:30N 53°51' W 130°02'95 7.4
2017-Oct-02 12:47N 52°34' W 128°29'2 6.7
2017-Oct-02 12:30N 52°33' W 128°28'4 7.5
2017-Oct-02 12:00N 52°29' W 128°27'3 7.0
2017-Oct-02 11:30N 52°26' W 128°29'4 7.1
2017-Oct-02 11:00N 52°22' W 128°32'4 7.8
2017-Oct-02 10:30N 52°19' W 128°30'4 8.6
2017-Oct-02 10:00N 52°16' W 128°25'5 9.7
2017-Oct-02 09:30N 52°15' W 128°17'4 8.8
2017-Oct-02 09:00N 52°14' W 128°10'3 6.9
2017-Oct-02 08:30N 52°11' W 128°06'4 7.3
2017-Oct-02 08:00N 52°08' W 128°08'4 7.3
2017-Oct-02 07:30N 52°05' W 128°04'4 8.6
2017-Oct-02 07:00N 52°04' W 127°57'4 7.4
2017-Oct-02 06:30N 52°01' W 127°56'4 8.3
2017-Oct-02 06:00N 51°56' W 127°57'4 8.5
2017-Oct-02 05:30N 51°52' W 127°57'4 8.5
2017-Oct-02 05:00N 51°48' W 127°56'4 8.4
2017-Oct-02 04:30N 51°44' W 127°56'4 8.4
2017-Oct-02 04:00N 51°40' W 127°55'4 8.2
2017-Oct-02 03:30N 51°36' W 127°53'4 7.8
2017-Oct-02 03:00N 51°32' W 127°51'3 6.4
2017-Oct-02 02:30N 51°29' W 127°51'4 7.7
2017-Oct-02 01:56N 51°24' W 127°52'3 7.6
2017-Oct-02 01:30N 51°21' W 127°53'3 6.4
2017-Oct-02 01:00N 51°18' W 127°53'3 6.3
2017-Oct-02 00:30N 51°15' W 127°53'3 6.6
2017-Oct-02 00:00N 51°12' W 127°52'3 6.9
2017-Oct-01 23:30N 51°08' W 127°50'3 6.4
2017-Oct-01 23:00N 51°06' W 127°46'4 7.2
2017-Oct-01 22:30N 51°04' W 127°42'4 7.1
2017-Oct-01 22:00N 51°02' W 127°37'3 6.9
2017-Oct-01 21:30N 50°59' W 127°34'4 7.5
2017-Oct-01 21:00N 50°57' W 127°29'4 8.0
2017-Oct-01 20:30N 50°55' W 127°24'4 8.1
2017-Oct-01 20:00N 50°52' W 127°19'4 8.2
2017-Oct-01 19:30N 50°50' W 127°13'4 8.1
2017-Oct-01 18:59N 50°48' W 127°08'4 8.2
2017-Oct-01 18:28N 50°45' W 127°02'53 8.3
2017-Oct-01 12:04N 50°23' W 125°47'110.2
2017-Oct-01 12:00N 50°22' W 125°46'6 9.5
2017-Oct-01 11:25N 50°22' W 125°37'4 9.5
2017-Oct-01 10:57N 50°21' W 125°31'4 8.4
2017-Oct-01 10:30N 50°19' W 125°25'5 8.8
2017-Oct-01 09:59N 50°15' W 125°23'4 8.7
2017-Oct-01 09:30N 50°11' W 125°22'4 7.7
2017-Oct-01 09:01N 50°07' W 125°21'3 6.4
2017-Oct-01 08:30N 50°05' W 125°17'4 7.1
2017-Oct-01 08:00N 50°02' W 125°14'2 3.9
2017-Oct-01 07:30N 50°00' W 125°13'2 4.8
2017-Oct-01 07:00N 49°58' W 125°11'3 5.8
2017-Oct-01 06:30N 49°56' W 125°08'3 6.3
2017-Oct-01 06:00N 49°54' W 125°04'4 7.3
2017-Oct-01 05:30N 49°52' W 124°59'4 7.9
2017-Oct-01 05:00N 49°50' W 124°54'4 8.4
2017-Oct-01 04:30N 49°48' W 124°49'4 8.4
2017-Oct-01 04:00N 49°45' W 124°44'4 8.9
2017-Oct-01 03:30N 49°42' W 124°39'4 9.0
2017-Oct-01 03:00N 49°39' W 124°33'152 6.1
2017-Sep-30 02:00N 47°35' W 122°21'0 0.0
2017-Sep-30 01:30N 47°35' W 122°21'0 0.3
2017-Sep-30 01:00N 47°35' W 122°21'0 0.2
2017-Sep-30 00:30N 47°35' W 122°21'0 0.0
2017-Sep-30 00:00N 47°35' W 122°21'0 0.0
2017-Sep-29 23:30N 47°35' W 122°21'0 0.0
2017-Sep-29 23:00N 47°35' W 122°21'0 0.0
2017-Sep-29 22:31N 47°35' W 122°21'3 5.3
2017-Sep-29 22:00N 47°37' W 122°24'3 5.1
2017-Sep-29 21:30N 47°38' W 122°28'  
Track history (hours):
 
Tides and Currents Weather Stations Pressure Air Temp Water Temp Dewpoint Dewpoint Depression Visibility Wind Speed Wind Dir Waves Ship Positions

Gulf Cajun

Owner: AR Cheramie Marine Management Inc, Lafayette, LA. More information available from US FCC via Universal Licensing System and Coast Guard Vessel Documentation Center.

Last reported at 2017-Oct-09 21:06 UTC. Time now 2017-Oct-17 06:18 UTC.
Position N 58°17' W 136°21'.

Length 45 m; draft 3 m.

Type: Ship. MMSI: 367014320.

Date/timePositionNaut miles runAvg speedWind from/ knotsBaromVisibWave heightAir tempDewpointWater temp
2017-Oct-09 21:06N 58°17' W 136°21'1 8.6
2017-Oct-09 21:00N 58°17' W 136°19'4 7.8
2017-Oct-09 20:26N 58°16' W 136°11'3 7.5
2017-Oct-09 20:00N 58°15' W 136°05'4 7.7
2017-Oct-09 19:30N 58°16' W 135°58'4 7.3
2017-Oct-09 19:00N 58°17' W 135°51'4 7.6
2017-Oct-09 18:28N 58°18' W 135°44'4 8.6
2017-Oct-09 18:00N 58°16' W 135°37'3 3.8
2017-Oct-09 17:16N 58°15' W 135°32'2 7.6
2017-Oct-09 16:59N 58°15' W 135°36'3 5.0
2017-Oct-09 16:29N 58°16' W 135°40'2 3.5
2017-Oct-09 16:00N 58°17' W 135°43'2 3.1
2017-Oct-09 15:29N 58°18' W 135°46'1 1.8
2017-Oct-09 15:00N 58°19' W 135°45'3 6.0
2017-Oct-09 14:30N 58°17' W 135°40'3 5.5
2017-Oct-09 13:58N 58°16' W 135°35'3 1.0
2017-Oct-09 10:57N 58°14' W 135°31'2 4.4
2017-Oct-09 10:29N 58°15' W 135°35'2 4.6
2017-Oct-09 09:57N 58°16' W 135°38'1 2.1
2017-Oct-09 09:22N 58°17' W 135°36'4 1.6
2017-Oct-09 06:41N 58°14' W 135°29'1 4.7
2017-Oct-09 06:30N 58°14' W 135°31'3 5.1
2017-Oct-09 05:57N 58°16' W 135°36'2 4.7
2017-Oct-09 05:30N 58°17' W 135°39'1 1.5
2017-Oct-09 04:59N 58°17' W 135°40'3 4.7
2017-Oct-09 04:19N 58°16' W 135°35'2 5.0
2017-Oct-09 04:00N 58°15' W 135°32'2 0.7
2017-Oct-09 00:56N 58°14' W 135°29'2 3.8
2017-Oct-09 00:29N 58°15' W 135°32'2 3.5
2017-Oct-09 00:00N 58°15' W 135°35'2 3.6
2017-Oct-08 23:29N 58°16' W 135°38'2 3.8
2017-Oct-08 23:00N 58°17' W 135°41'2 3.3
2017-Oct-08 22:29N 58°18' W 135°44'2 3.9
2017-Oct-08 22:00N 58°19' W 135°47'2 3.3
2017-Oct-08 21:30N 58°18' W 135°45'3 5.2
2017-Oct-08 20:59N 58°17' W 135°40'2 4.5
2017-Oct-08 20:30N 58°16' W 135°36'3 5.1
2017-Oct-08 19:57N 58°15' W 135°31'1 0.3
2017-Oct-08 17:03N 58°15' W 135°29'0 3.8
2017-Oct-08 16:59N 58°15' W 135°30'2 3.9
2017-Oct-08 16:30N 58°15' W 135°33'2 4.0
2017-Oct-08 16:00N 58°16' W 135°37'2 3.8
2017-Oct-08 15:28N 58°17' W 135°40'2 3.2
2017-Oct-08 15:00N 58°17' W 135°43'3 4.6
2017-Oct-08 14:26N 58°17' W 135°38'3 5.8
2017-Oct-08 13:56N 58°16' W 135°33'3 5.5
2017-Oct-08 13:23N 58°15' W 135°28'1 0.7
2017-Oct-08 11:35N 58°13' W 135°28'0 3.9
2017-Oct-08 11:28N 58°14' W 135°29'2 3.9
2017-Oct-08 10:57N 58°14' W 135°32'2 4.1
2017-Oct-08 10:28N 58°15' W 135°36'2 4.4
2017-Oct-08 09:59N 58°16' W 135°40'2 4.7
2017-Oct-08 09:30N 58°17' W 135°43'1 2.8
2017-Oct-08 08:59N 58°19' W 135°43'2 4.2
2017-Oct-08 08:28N 58°17' W 135°40'2 4.7
2017-Oct-08 07:59N 58°17' W 135°36'5 1.5
2017-Oct-08 04:49N 58°14' W 135°29'1 4.5
2017-Oct-08 04:29N 58°15' W 135°31'3 4.3
2017-Oct-08 03:50N 58°16' W 135°36'1 1.5
2017-Oct-08 03:20N 58°16' W 135°34'3 5.3
2017-Oct-08 02:51N 58°15' W 135°30'3 1.9
2017-Oct-08 01:16N 58°13' W 135°25'2 4.5
2017-Oct-08 00:51N 58°13' W 135°28'4 4.3
2017-Oct-08 00:00N 58°15' W 135°35'2 4.5
2017-Oct-07 23:30N 58°16' W 135°39'2 4.3
2017-Oct-07 22:59N 58°17' W 135°43'2 3.8
2017-Oct-07 22:30N 58°18' W 135°45'1 1.7
2017-Oct-07 22:00N 58°19' W 135°43'3 5.0
2017-Oct-07 21:28N 58°17' W 135°39'2 4.5
2017-Oct-07 21:00N 58°16' W 135°35'2 4.8
2017-Oct-07 20:29N 58°16' W 135°31'1 0.5
2017-Oct-07 17:29N 58°14' W 135°30'3 4.9
2017-Oct-07 16:53N 58°16' W 135°35'2 5.3
2017-Oct-07 16:30N 58°16' W 135°38'2 4.9
2017-Oct-07 16:00N 58°17' W 135°43'2 4.1
2017-Oct-07 15:29N 58°17' W 135°39'3 4.9
2017-Oct-07 14:56N 58°16' W 135°34'2 0.7
2017-Oct-07 12:01N 58°14' W 135°33'1 4.4
2017-Oct-07 11:53N 58°14' W 135°33'2 4.5
2017-Oct-07 11:30N 58°15' W 135°36'2 4.5
2017-Oct-07 10:59N 58°16' W 135°41'2 3.9
2017-Oct-07 10:30N 58°17' W 135°43'2 3.9
2017-Oct-07 10:00N 58°19' W 135°46'1 1.7
2017-Oct-07 09:30N 58°18' W 135°45'2 4.7
2017-Oct-07 08:59N 58°17' W 135°40'2 4.3
2017-Oct-07 08:29N 58°17' W 135°36'2 4.3
2017-Oct-07 07:57N 58°16' W 135°32'5 2.6
2017-Oct-07 06:06N 58°13' W 135°25'0 4.6
2017-Oct-07 05:59N 58°13' W 135°26'4 4.5
2017-Oct-07 05:12N 58°15' W 135°32'2 5.6
2017-Oct-07 04:56N 58°15' W 135°34'2 5.4
2017-Oct-07 04:29N 58°16' W 135°39'3 5.5
2017-Oct-07 04:00N 58°18' W 135°43'1 2.6
2017-Oct-07 03:29N 58°17' W 135°41'4 7.1
2017-Oct-07 02:59N 58°16' W 135°34'3 4.9
2017-Oct-07 02:27N 58°15' W 135°30'5 1.3
2017-Oct-06 23:06N 58°15' W 135°38'3 3.9
2017-Oct-06 22:13N 58°17' W 135°44'1 2.9
2017-Oct-06 21:58N 58°18' W 135°45'2 0.3
2017-Oct-06 15:47N 58°17' W 135°41'2 5.0
2017-Oct-06 15:28N 58°18' W 135°43'2 4.1
2017-Oct-06 14:58N 58°19' W 135°47'1 2.0
2017-Oct-06 14:30N 58°18' W 135°48'3 5.5
2017-Oct-06 13:59N 58°17' W 135°44'3 4.9
2017-Oct-06 13:25N 58°16' W 135°39'3 5.2
2017-Oct-06 12:54N 58°16' W 135°34'3 1.0
2017-Oct-06 10:02N 58°14' W 135°30'0 4.9
2017-Oct-06 09:58N 58°14' W 135°31'2 4.6
2017-Oct-06 09:26N 58°15' W 135°35'2 4.6
2017-Oct-06 08:59N 58°16' W 135°38'2 4.4
2017-Oct-06 08:30N 58°17' W 135°41'2 4.0
2017-Oct-06 07:55N 58°17' W 135°37'3 5.2
2017-Oct-06 07:25N 58°16' W 135°32'3 1.0
2017-Oct-06 04:13N 58°13' W 135°28'1 4.6
2017-Oct-06 03:54N 58°14' W 135°30'2 4.7
2017-Oct-06 03:29N 58°15' W 135°33'3 4.4
2017-Oct-06 02:49N 58°16' W 135°39'1 4.5
2017-Oct-06 02:30N 58°17' W 135°41'2 3.9
2017-Oct-06 02:00N 58°18' W 135°44'2 3.4
2017-Oct-06 01:30N 58°19' W 135°47'1 2.2
2017-Oct-06 01:00N 58°19' W 135°49'10 0.9
2017-Oct-05 13:50N 58°15' W 135°31'2 4.3
2017-Oct-05 13:29N 58°16' W 135°34'2 4.0
2017-Oct-05 12:56N 58°16' W 135°38'2 3.7
2017-Oct-05 12:30N 58°17' W 135°41'2 3.7
2017-Oct-05 12:00N 58°18' W 135°44'2 3.4
2017-Oct-05 11:30N 58°19' W 135°47'2 4.4
2017-Oct-05 11:00N 58°18' W 135°43'3 6.2
2017-Oct-05 10:26N 58°16' W 135°37'3 6.5
2017-Oct-05 09:58N 58°15' W 135°32'3 2.8
2017-Oct-05 08:52N 58°14' W 135°26'2 3.9
2017-Oct-05 08:14N 58°15' W 135°30'1 4.2
2017-Oct-05 07:57N 58°16' W 135°32'2 4.1
2017-Oct-05 07:30N 58°16' W 135°36'2 4.2
2017-Oct-05 06:58N 58°17' W 135°40'2 4.2
2017-Oct-05 06:30N 58°17' W 135°43'1 2.8
2017-Oct-05 06:00N 58°18' W 135°46'2 3.7
2017-Oct-05 05:30N 58°18' W 135°42'2 4.6
2017-Oct-05 04:59N 58°17' W 135°38'4 5.4
2017-Oct-05 04:16N 58°15' W 135°31'4 1.8
2017-Oct-05 02:17N 58°14' W 135°25'2 5.3
2017-Oct-05 01:57N 58°14' W 135°28'258 6.3
2017-Oct-03 09:02N 54°43' W 131°03'2 9.5
2017-Oct-03 08:50N 54°42' W 130°59'4 9.5
2017-Oct-03 08:27N 54°42' W 130°53'4 9.1
2017-Oct-03 08:00N 54°40' W 130°48'5 9.4
2017-Oct-03 07:30N 54°36' W 130°44'4 8.6
2017-Oct-03 07:00N 54°32' W 130°43'4 8.2
2017-Oct-03 06:30N 54°28' W 130°40'4 8.4
2017-Oct-03 06:00N 54°24' W 130°38'4 8.0
2017-Oct-03 05:30N 54°20' W 130°36'4 8.6
2017-Oct-03 05:00N 54°16' W 130°33'5 9.1
2017-Oct-03 04:30N 54°12' W 130°28'5 8.9
2017-Oct-03 04:00N 54°08' W 130°24'4 8.9
2017-Oct-03 03:30N 54°05' W 130°19'5 9.2
2017-Oct-03 03:00N 54°02' W 130°14'5 9.5
2017-Oct-03 02:30N 53°57' W 130°12'4 8.1
2017-Oct-03 02:00N 53°54' W 130°07'5 8.9
2017-Oct-03 01:30N 53°51' W 130°02'95 7.4
2017-Oct-02 12:47N 52°34' W 128°29'2 6.7
2017-Oct-02 12:30N 52°33' W 128°28'4 7.5
2017-Oct-02 12:00N 52°29' W 128°27'3 7.0
2017-Oct-02 11:30N 52°26' W 128°29'4 7.1
2017-Oct-02 11:00N 52°22' W 128°32'4 7.8
2017-Oct-02 10:30N 52°19' W 128°30'4 8.6
2017-Oct-02 10:00N 52°16' W 128°25'5 9.7
2017-Oct-02 09:30N 52°15' W 128°17'4 8.8
2017-Oct-02 09:00N 52°14' W 128°10'3 6.9
2017-Oct-02 08:30N 52°11' W 128°06'4 7.3
2017-Oct-02 08:00N 52°08' W 128°08'4 7.3
2017-Oct-02 07:30N 52°05' W 128°04'4 8.6
2017-Oct-02 07:00N 52°04' W 127°57'4 7.4
2017-Oct-02 06:30N 52°01' W 127°56'4 8.3
2017-Oct-02 06:00N 51°56' W 127°57'4 8.5
2017-Oct-02 05:30N 51°52' W 127°57'4 8.5
2017-Oct-02 05:00N 51°48' W 127°56'4 8.4
2017-Oct-02 04:30N 51°44' W 127°56'4 8.4
2017-Oct-02 04:00N 51°40' W 127°55'4 8.2
2017-Oct-02 03:30N 51°36' W 127°53'4 7.8
2017-Oct-02 03:00N 51°32' W 127°51'3 6.4
2017-Oct-02 02:30N 51°29' W 127°51'4 7.7
2017-Oct-02 01:56N 51°24' W 127°52'3 7.6
2017-Oct-02 01:30N 51°21' W 127°53'3 6.4
2017-Oct-02 01:00N 51°18' W 127°53'3 6.3
2017-Oct-02 00:30N 51°15' W 127°53'3 6.6
2017-Oct-02 00:00N 51°12' W 127°52'3 6.9
2017-Oct-01 23:30N 51°08' W 127°50'3 6.4
2017-Oct-01 23:00N 51°06' W 127°46'4 7.2
2017-Oct-01 22:30N 51°04' W 127°42'4 7.1
2017-Oct-01 22:00N 51°02' W 127°37'3 6.9
2017-Oct-01 21:30N 50°59' W 127°34'4 7.5
2017-Oct-01 21:00N 50°57' W 127°29'4 8.0
2017-Oct-01 20:30N 50°55' W 127°24'4 8.1
2017-Oct-01 20:00N 50°52' W 127°19'4 8.2
2017-Oct-01 19:30N 50°50' W 127°13'4 8.1
2017-Oct-01 18:59N 50°48' W 127°08'4 8.2
2017-Oct-01 18:28N 50°45' W 127°02'53 8.3
2017-Oct-01 12:04N 50°23' W 125°47'110.2
2017-Oct-01 12:00N 50°22' W 125°46'6 9.5
2017-Oct-01 11:25N 50°22' W 125°37'4 9.5
2017-Oct-01 10:57N 50°21' W 125°31'4 8.4
2017-Oct-01 10:30N 50°19' W 125°25'5 8.8
2017-Oct-01 09:59N 50°15' W 125°23'4 8.7
2017-Oct-01 09:30N 50°11' W 125°22'4 7.7
2017-Oct-01 09:01N 50°07' W 125°21'3 6.4
2017-Oct-01 08:30N 50°05' W 125°17'4 7.1
2017-Oct-01 08:00N 50°02' W 125°14'2 3.9
2017-Oct-01 07:30N 50°00' W 125°13'2 4.8
2017-Oct-01 07:00N 49°58' W 125°11'3 5.8
2017-Oct-01 06:30N 49°56' W 125°08'3 6.3
2017-Oct-01 06:00N 49°54' W 125°04'4 7.3
2017-Oct-01 05:30N 49°52' W 124°59'4 7.9
2017-Oct-01 05:00N 49°50' W 124°54'4 8.4
2017-Oct-01 04:30N 49°48' W 124°49'4 8.4
2017-Oct-01 04:00N 49°45' W 124°44'4 8.9
2017-Oct-01 03:30N 49°42' W 124°39'4 9.0
2017-Oct-01 03:00N 49°39' W 124°33'152 6.1
2017-Sep-30 02:00N 47°35' W 122°21'0 0.0
2017-Sep-30 01:30N 47°35' W 122°21'0 0.3
2017-Sep-30 01:00N 47°35' W 122°21'0 0.2
2017-Sep-30 00:30N 47°35' W 122°21'0 0.0
2017-Sep-30 00:00N 47°35' W 122°21'0 0.0
2017-Sep-29 23:30N 47°35' W 122°21'0 0.0
2017-Sep-29 23:00N 47°35' W 122°21'0 0.0
2017-Sep-29 22:31N 47°35' W 122°21'3 5.3
2017-Sep-29 22:00N 47°37' W 122°24'3 5.1
2017-Sep-29 21:30N 47°38' W 122°28'  

Dump ship's entire track history